createdAt,value
2022-10-03T00:00:08.410Z,100873.03
2022-10-03T00:03:20.295Z,100894.84
2022-10-03T00:06:15.419Z,100905.31
2022-10-03T00:09:05.828Z,100753.94
2022-10-03T00:11:53.486Z,100900.75
2022-10-03T00:14:36.174Z,100906.00
2022-10-03T00:17:15.278Z,100900.63
2022-10-03T00:19:59.635Z,100822.78
2022-10-03T00:22:42.347Z,100904.19
2022-10-03T00:25:38.846Z,100908.47
2022-10-03T00:28:25.077Z,100902.25
2022-10-03T00:31:13.688Z,100881.97
2022-10-03T00:34:04.567Z,100902.91
2022-10-03T00:36:48.102Z,100905.28
2022-10-03T00:39:51.048Z,100904.25
2022-10-03T00:43:08.553Z,100904.06
2022-10-03T00:46:30.386Z,100912.78
2022-10-03T00:49:54.353Z,100910.06
2022-10-03T00:52:53.957Z,100898.47
2022-10-03T00:55:39.674Z,100914.09
2022-10-03T00:58:53.151Z,100913.19
2022-10-03T01:01:38.454Z,100915.75
2022-10-03T01:04:31.646Z,100864.09
2022-10-03T01:07:17.965Z,100731.31
2022-10-03T01:10:12.511Z,100919.13
2022-10-03T01:13:13.009Z,100920.00
2022-10-03T01:15:54.593Z,100878.84
2022-10-03T01:18:46.957Z,100919.97
2022-10-03T01:21:32.972Z,100923.50
2022-10-03T01:24:38.474Z,100872.69
2022-10-03T01:27:11.913Z,100918.16
2022-10-03T01:30:08.767Z,100918.16
2022-10-03T01:32:49.314Z,100927.78
2022-10-03T01:35:31.562Z,100925.84
2022-10-03T01:38:18.232Z,100927.63
2022-10-03T01:40:59.172Z,100926.75
2022-10-03T01:43:42.709Z,100937.19
2022-10-03T01:46:22.902Z,100932.00
2022-10-03T01:49:02.617Z,100912.03
2022-10-03T01:51:44.310Z,100940.72
2022-10-03T01:54:29.484Z,100949.56
2022-10-03T01:57:03.933Z,100936.47
2022-10-03T01:59:43.353Z,100953.06
2022-10-03T02:02:28.916Z,100928.53
2022-10-03T02:05:12.821Z,100913.63
2022-10-03T02:07:56.182Z,100947.66
2022-10-03T02:10:38.922Z,100956.44
2022-10-03T02:13:15.070Z,100962.66
2022-10-03T02:15:59.202Z,100958.97
2022-10-03T02:18:45.437Z,100764.13
2022-10-03T02:21:21.289Z,100964.19
2022-10-03T02:23:52.912Z,100917.78
2022-10-03T02:27:31.725Z,100979.97
2022-10-03T02:30:14.537Z,100967.63
2022-10-03T02:33:25.401Z,100972.00
2022-10-03T02:36:42.326Z,100976.25
2022-10-03T02:39:55.357Z,100977.19
2022-10-03T02:43:01.272Z,100985.13
2022-10-03T02:46:10.487Z,100979.72
2022-10-03T02:49:23.396Z,100945.72
2022-10-03T02:52:33.904Z,100988.66
2022-10-03T02:55:34.199Z,100949.19
2022-10-03T02:58:58.004Z,100991.91
2022-10-03T03:02:18.848Z,100994.59
2022-10-03T03:05:29.702Z,100993.88
2022-10-03T03:09:03.919Z,100957.00
2022-10-03T03:12:20.290Z,100928.19
2022-10-03T03:15:46.995Z,100989.47
2022-10-03T03:18:32.590Z,100982.34
2022-10-03T03:21:30.660Z,100983.28
2022-10-03T03:24:37.811Z,100969.25
2022-10-03T03:27:35.212Z,100996.34
2022-10-03T03:30:12.978Z,100966.63
2022-10-03T03:33:02.838Z,100985.88
2022-10-03T03:35:53.301Z,100853.13
2022-10-03T03:38:34.460Z,100956.34
2022-10-03T03:41:24.671Z,100988.63
2022-10-03T03:44:54.322Z,100994.88
2022-10-03T03:47:46.452Z,100977.44
2022-10-03T03:50:34.669Z,100998.19
2022-10-03T03:53:35.349Z,101002.72
2022-10-03T03:56:34.420Z,101003.53
2022-10-03T03:59:22.514Z,100965.16
2022-10-03T04:02:22.167Z,101011.50
2022-10-03T04:05:09.316Z,101008.13
2022-10-03T04:07:58.209Z,100946.72
2022-10-03T04:10:48.665Z,101008.88
2022-10-03T04:13:47.824Z,101005.47
2022-10-03T04:16:53.390Z,100950.31
2022-10-03T04:19:41.222Z,100929.38
2022-10-03T04:22:30.338Z,101018.56
2022-10-03T04:25:32.389Z,100986.16
2022-10-03T04:28:36.171Z,100994.13
2022-10-03T04:31:29.592Z,100990.59
2022-10-03T04:34:24.643Z,101027.38
2022-10-03T04:37:16.430Z,101014.13
2022-10-03T04:40:03.670Z,100973.84
2022-10-03T04:42:51.318Z,100999.41
2022-10-03T04:45:39.550Z,101017.63
2022-10-03T04:48:19.842Z,101021.97
2022-10-03T04:51:07.617Z,101020.31
2022-10-03T04:53:51.592Z,101019.31
2022-10-03T04:56:41.483Z,101017.63
2022-10-03T04:59:39.165Z,100990.47
2022-10-03T05:02:25.933Z,100926.69
2022-10-03T05:05:16.676Z,100997.50
2022-10-03T05:07:55.753Z,100938.97
2022-10-03T05:10:55.973Z,101033.41
2022-10-03T05:13:42.456Z,101015.16
2022-10-03T05:16:29.239Z,100980.13
2022-10-03T05:19:33.455Z,101008.09
2022-10-03T05:22:13.277Z,101040.63
2022-10-03T05:24:52.681Z,100917.25
2022-10-03T05:27:38.120Z,101042.28
2022-10-03T05:30:17.589Z,101056.44
2022-10-03T05:32:55.444Z,101060.09
2022-10-03T05:35:45.007Z,101049.53
2022-10-03T05:39:03.602Z,101053.09
2022-10-03T05:41:36.534Z,101035.63
2022-10-03T05:44:15.269Z,101068.03
2022-10-03T05:47:06.756Z,101066.16
2022-10-03T05:50:10.986Z,101068.97
2022-10-03T05:53:03.748Z,100945.63
2022-10-03T05:55:50.921Z,101073.53
2022-10-03T05:59:18.956Z,101049.94
2022-10-03T06:02:26.291Z,101086.84
2022-10-03T06:05:21.553Z,101084.13
2022-10-03T06:08:21.374Z,101076.06
2022-10-03T06:11:04.516Z,101084.00
2022-10-03T06:14:00.183Z,101083.78
2022-10-03T06:16:46.196Z,101094.38
2022-10-03T06:19:38.943Z,101097.91
2022-10-03T06:23:06.066Z,101090.88
2022-10-03T06:26:40.308Z,101086.50
2022-10-03T06:29:54.825Z,101111.63
2022-10-03T06:33:21.266Z,101119.53
2022-10-03T06:36:21.493Z,101115.84
2022-10-03T06:39:38.200Z,101122.00
2022-10-03T06:42:48.613Z,101109.69
2022-10-03T06:46:20.561Z,101107.19
2022-10-03T06:49:33.382Z,101048.47
2022-10-03T06:52:46.321Z,101121.97
2022-10-03T06:56:05.328Z,101118.09
2022-10-03T06:59:32.681Z,101072.38
2022-10-03T07:03:00.980Z,101124.88
2022-10-03T07:06:18.442Z,101132.88
2022-10-03T07:09:38.488Z,101124.00
2022-10-03T07:13:07.735Z,101142.31
2022-10-03T07:20:10.111Z,101145.41
2022-10-03T07:23:34.850Z,101151.34
2022-10-03T07:26:56.048Z,101152.16
2022-10-03T07:30:06.534Z,101002.94
2022-10-03T07:33:20.762Z,101157.50
2022-10-03T07:36:49.207Z,101163.00
2022-10-03T07:40:30.126Z,101164.75
2022-10-03T07:43:47.577Z,101169.09
2022-10-03T07:47:05.643Z,101174.34
2022-10-03T07:50:05.706Z,101183.16
2022-10-03T07:53:24.879Z,101130.66
2022-10-03T07:56:16.240Z,101154.94
2022-10-03T07:59:26.170Z,101132.97
2022-10-03T08:02:17.348Z,101148.06
2022-10-03T08:05:19.996Z,101204.03
2022-10-03T08:08:23.506Z,101103.56
2022-10-03T08:11:34.400Z,101198.84
2022-10-03T08:14:19.278Z,101197.97
2022-10-03T08:17:31.774Z,101205.19
2022-10-03T08:20:38.300Z,101202.72
2022-10-03T08:23:37.304Z,101174.56
2022-10-03T08:26:20.571Z,101207.91
2022-10-03T08:29:32.207Z,101200.00
2022-10-03T08:32:55.349Z,101182.47
2022-10-03T08:35:48.369Z,101212.16
2022-10-03T08:38:51.123Z,101210.38
2022-10-03T08:42:35.249Z,101213.75
2022-10-03T08:45:39.982Z,101212.97
2022-10-03T08:48:57.957Z,101202.41
2022-10-03T08:52:13.458Z,101215.31
2022-10-03T08:55:31.094Z,101209.28
2022-10-03T08:58:50.767Z,101219.84
2022-10-03T09:01:50.437Z,101200.69
2022-10-03T09:05:17.878Z,101215.38
2022-10-03T09:08:36.750Z,101224.59
2022-10-03T09:12:16.687Z,101227.06
2022-10-03T09:15:29.039Z,101214.19
2022-10-03T09:18:40.619Z,101201.56
2022-10-03T09:22:01.303Z,101215.56
2022-10-03T09:25:21.121Z,101223.31
2022-10-03T09:28:48.064Z,101200.91
2022-10-03T09:32:04.478Z,101230.81
2022-10-03T09:35:39.549Z,101218.66
2022-10-03T09:38:55.283Z,101174.78
2022-10-03T09:41:56.578Z,101163.44
2022-10-03T09:45:16.087Z,101224.44
2022-10-03T09:48:33.243Z,101238.91
2022-10-03T09:51:34.559Z,101233.97
2022-10-03T09:54:48.526Z,101234.91
2022-10-03T09:58:08.852Z,101236.06
2022-10-03T10:01:25.106Z,101172.28
2022-10-03T10:04:56.076Z,101239.84
2022-10-03T10:07:57.434Z,101206.25
2022-10-03T10:11:04.061Z,101243.56
2022-10-03T10:14:22.134Z,101244.13
2022-10-03T10:18:05.838Z,101257.53
2022-10-03T10:21:28.858Z,101258.59
2022-10-03T10:24:36.509Z,101261.25
2022-10-03T10:27:43.885Z,101260.94
2022-10-03T10:31:17.266Z,101254.72
2022-10-03T10:34:42.427Z,101208.47
2022-10-03T10:37:55.254Z,101272.91
2022-10-03T10:41:19.722Z,101192.78
2022-10-03T10:44:44.048Z,101049.63
2022-10-03T10:47:52.714Z,101220.28
2022-10-03T10:51:29.921Z,101260.72
2022-10-03T10:55:03.584Z,101262.28
2022-10-03T10:58:42.409Z,101260.88
2022-10-03T11:02:24.563Z,101238.44
2022-10-03T11:05:45.712Z,101208.25
2022-10-03T11:09:08.303Z,100965.78
2022-10-03T11:12:42.059Z,101265.09
2022-10-03T11:16:03.049Z,101244.25
2022-10-03T11:19:37.429Z,101268.81
2022-10-03T11:23:15.770Z,101250.38
2022-10-03T11:26:55.816Z,101235.09
2022-10-03T11:30:19.513Z,101266.50
2022-10-03T11:33:45.816Z,101181.25
2022-10-03T11:37:07.228Z,101248.94
2022-10-03T11:39:51.724Z,101240.19
2022-10-03T11:42:33.965Z,101281.31
2022-10-03T11:45:07.142Z,101261.88
2022-10-03T11:47:58.203Z,101266.25
2022-10-03T11:50:46.158Z,101224.09
2022-10-03T11:53:43.567Z,101266.44
2022-10-03T11:56:41.344Z,101219.59
2022-10-03T11:59:48.897Z,101242.81
2022-10-03T12:02:49.433Z,101261.56
2022-10-03T12:05:30.163Z,101245.84
2022-10-03T12:08:38.350Z,101007.59
2022-10-03T12:11:19.642Z,101192.22
2022-10-03T12:14:15.446Z,101118.16
2022-10-03T12:17:05.886Z,101071.41
2022-10-03T12:19:46.979Z,101271.34
2022-10-03T12:22:37.840Z,101183.56
2022-10-03T12:25:21.566Z,101250.59
2022-10-03T12:28:14.719Z,101259.66
2022-10-03T12:30:52.521Z,101172.09
2022-10-03T12:33:49.820Z,101236.75
2022-10-03T12:36:29.308Z,101178.34
2022-10-03T12:39:14.944Z,101264.72
2022-10-03T12:42:14.678Z,101094.72
2022-10-03T12:44:56.369Z,101259.38
2022-10-03T12:47:57.520Z,101260.47
2022-10-03T12:50:43.320Z,101256.47
2022-10-03T12:53:39.058Z,101223.56
2022-10-03T12:56:18.822Z,101216.59
2022-10-03T12:59:12.912Z,101262.28
2022-10-03T13:02:12.601Z,101266.44
2022-10-03T13:04:54.866Z,101267.53
2022-10-03T13:07:41.136Z,101223.59
2022-10-03T13:10:31.569Z,101089.28
2022-10-03T13:13:24.278Z,101267.72
2022-10-03T13:16:24.754Z,101254.53
2022-10-03T13:19:06.446Z,101235.19
2022-10-03T13:21:55.408Z,101260.19
2022-10-03T13:24:34.430Z,101209.22
2022-10-03T13:27:26.306Z,101261.97
2022-10-03T13:30:05.376Z,101238.44
2022-10-03T13:32:37.721Z,101211.56
2022-10-03T13:35:40.479Z,101097.41
2022-10-03T13:39:01.127Z,101237.78
2022-10-03T13:42:00.831Z,101236.44
2022-10-03T13:44:39.910Z,101247.63
2022-10-03T13:47:29.275Z,101186.13
2022-10-03T13:50:02.446Z,101253.56
2022-10-03T13:52:43.771Z,101245.22
2022-10-03T13:55:35.235Z,101249.66
2022-10-03T13:58:45.862Z,101247.28
2022-10-03T14:01:38.899Z,101245.53
2022-10-03T14:04:44.060Z,101246.66
2022-10-03T14:07:30.265Z,101250.13
2022-10-03T14:10:27.662Z,101252.22
2022-10-03T14:13:22.972Z,101245.97
2022-10-03T14:16:03.141Z,101235.13
2022-10-03T14:18:50.687Z,101166.47
2022-10-03T14:22:00.317Z,101245.09
2022-10-03T14:25:05.154Z,101249.34
2022-10-03T14:27:52.481Z,101252.22
2022-10-03T14:30:24.268Z,101253.03
2022-10-03T14:33:18.389Z,101220.88
2022-10-03T14:36:02.698Z,101197.97
2022-10-03T14:39:05.535Z,101251.44
2022-10-03T14:42:12.581Z,101170.19
2022-10-03T14:44:48.080Z,101057.56
2022-10-03T14:47:19.634Z,101244.81
2022-10-03T14:49:59.217Z,101238.84
2022-10-03T14:52:38.290Z,101224.09
2022-10-03T14:55:15.976Z,101233.88
2022-10-03T14:58:09.797Z,101234.63
2022-10-03T15:00:45.411Z,101239.09
2022-10-03T15:03:38.451Z,101217.66
2022-10-03T15:06:34.364Z,101209.22
2022-10-03T15:09:10.062Z,101189.03
2022-10-03T15:11:48.503Z,101217.94
2022-10-03T15:14:18.124Z,101222.44
2022-10-03T15:16:55.023Z,101063.38
2022-10-03T15:19:32.849Z,101209.34
2022-10-03T15:22:15.117Z,101220.19
2022-10-03T15:24:44.838Z,101219.59
2022-10-03T15:27:21.902Z,101171.66
2022-10-03T15:29:56.958Z,101216.13
2022-10-03T15:32:34.878Z,101196.13
2022-10-03T15:35:06.692Z,101206.75
2022-10-03T15:37:45.419Z,101211.81
2022-10-03T15:40:33.342Z,101167.81
2022-10-03T15:43:21.044Z,101147.84
2022-10-03T15:45:49.918Z,101205.38
2022-10-03T15:48:26.427Z,101209.22
2022-10-03T15:50:58.580Z,101205.91
2022-10-03T15:53:36.545Z,101170.13
2022-10-03T15:56:17.694Z,101201.34
2022-10-03T15:58:51.639Z,101177.81
2022-10-03T16:01:26.066Z,101204.47
2022-10-03T16:04:03.069Z,101201.31
2022-10-03T16:06:47.619Z,101205.19
2022-10-03T16:09:28.008Z,101225.59
2022-10-03T16:12:16.545Z,101199.03
2022-10-03T16:14:51.540Z,101125.09
2022-10-03T16:17:30.005Z,101216.28
2022-10-03T16:20:10.072Z,101123.34
2022-10-03T16:22:49.802Z,101153.06
2022-10-03T16:25:22.796Z,101225.75
2022-10-03T16:27:59.825Z,101173.41
2022-10-03T16:30:33.673Z,101224.75
2022-10-03T16:33:14.095Z,101203.22
2022-10-03T16:35:48.839Z,101222.47
2022-10-03T16:38:25.888Z,101228.00
2022-10-03T16:41:01.868Z,101219.09
2022-10-03T16:43:34.719Z,101225.31
2022-10-03T16:46:15.131Z,101179.91
2022-10-03T16:49:03.499Z,101221.16
2022-10-03T16:51:43.429Z,101198.38
2022-10-03T16:54:16.344Z,101226.47
2022-10-03T16:56:50.401Z,101223.94
2022-10-03T16:59:22.724Z,101120.03
2022-10-03T17:01:54.052Z,101213.59
2022-10-03T17:04:26.910Z,101170.78
2022-10-03T17:07:01.418Z,101169.22
2022-10-03T17:09:38.453Z,101184.06
2022-10-03T17:12:17.351Z,101184.97
2022-10-03T17:14:46.598Z,101220.91
2022-10-03T17:17:32.202Z,101206.19
2022-10-03T17:20:09.003Z,101067.31
2022-10-03T17:22:46.100Z,101227.19
2022-10-03T17:25:45.072Z,101183.28
2022-10-03T17:28:28.848Z,101202.66
2022-10-03T17:31:05.045Z,101181.59
2022-10-03T17:33:43.595Z,101224.63
2022-10-03T17:37:11.698Z,101223.44
2022-10-03T17:39:51.707Z,101156.88
2022-10-03T17:42:43.486Z,101221.75
2022-10-03T17:45:34.539Z,101195.63
2022-10-03T17:48:17.747Z,101233.31
2022-10-03T17:51:02.644Z,101196.53
2022-10-03T17:53:37.039Z,101183.56
2022-10-03T17:56:14.474Z,101214.28
2022-10-03T17:58:51.153Z,101205.50
2022-10-03T18:01:22.479Z,101201.19
2022-10-03T18:03:56.590Z,101144.38
2022-10-03T18:06:48.554Z,101206.47
2022-10-03T18:09:32.255Z,101210.16
2022-10-03T18:12:18.284Z,101023.84
2022-10-03T18:15:11.154Z,101199.88
2022-10-03T18:17:59.801Z,101190.75
2022-10-03T18:20:46.249Z,101223.97
2022-10-03T18:23:52.997Z,101231.78
2022-10-03T18:26:29.781Z,101231.13
2022-10-03T18:29:17.206Z,101234.47
2022-10-03T18:31:57.380Z,101226.59
2022-10-03T18:34:36.058Z,101198.88
2022-10-03T18:38:05.858Z,101224.38
2022-10-03T18:40:38.536Z,101228.00
2022-10-03T18:43:27.001Z,101219.06
2022-10-03T18:46:14.302Z,101011.06
2022-10-03T18:49:23.890Z,101162.47
2022-10-03T18:51:47.851Z,101227.22
2022-10-03T18:54:31.331Z,101190.59
2022-10-03T18:57:15.642Z,101225.66
2022-10-03T18:59:53.836Z,101212.75
2022-10-03T19:02:32.767Z,101098.84
2022-10-03T19:05:14.190Z,101216.88
2022-10-03T19:07:52.100Z,101215.94
2022-10-03T19:10:41.008Z,101176.44
2022-10-03T19:13:32.774Z,101200.41
2022-10-03T19:16:29.268Z,101211.06
2022-10-03T19:19:12.477Z,101216.50
2022-10-03T19:21:43.441Z,101217.28
2022-10-03T19:24:24.383Z,101183.09
2022-10-03T19:27:13.919Z,101214.53
2022-10-03T19:29:47.838Z,101207.50
2022-10-03T19:32:28.072Z,101205.03
2022-10-03T19:35:05.733Z,101216.41
2022-10-03T19:37:45.885Z,101215.59
2022-10-03T19:40:38.548Z,101186.81
2022-10-03T19:43:41.223Z,101219.94
2022-10-03T19:46:28.943Z,101194.72
2022-10-03T19:49:23.777Z,101220.94
2022-10-03T19:52:10.175Z,101226.09
2022-10-03T19:54:50.519Z,101223.59
2022-10-03T19:57:23.510Z,101224.47
2022-10-03T19:59:56.533Z,101075.88
2022-10-03T20:02:27.306Z,101226.44
2022-10-03T20:04:58.663Z,101204.50
2022-10-03T20:07:46.143Z,101222.88
2022-10-03T20:10:40.619Z,101116.25
2022-10-03T20:13:11.858Z,101220.94
2022-10-03T20:15:45.997Z,101230.69
2022-10-03T20:18:23.894Z,101221.28
2022-10-03T20:20:55.941Z,101207.88
2022-10-03T20:23:29.835Z,101225.59
2022-10-03T20:26:09.937Z,101227.47
2022-10-03T20:29:03.890Z,101219.72
2022-10-03T20:31:38.924Z,101086.91
2022-10-03T20:34:15.379Z,101201.56
2022-10-03T20:36:51.734Z,101202.72
2022-10-03T20:39:28.914Z,101211.50
2022-10-03T20:42:05.155Z,101032.03
2022-10-03T20:45:15.598Z,101217.69
2022-10-03T20:48:01.987Z,101219.47
2022-10-03T20:50:36.191Z,101215.03
2022-10-03T20:53:16.974Z,101173.94
2022-10-03T20:55:52.092Z,101210.84
2022-10-03T20:58:30.629Z,101232.88
2022-10-03T21:01:05.581Z,101222.38
2022-10-03T21:03:45.110Z,101229.38
2022-10-03T21:06:22.156Z,101203.66
2022-10-03T21:08:51.313Z,101221.94
2022-10-03T21:11:27.352Z,101221.94
2022-10-03T21:14:00.396Z,101180.88
2022-10-03T21:16:34.873Z,101225.72
2022-10-03T21:19:07.094Z,101205.59
2022-10-03T21:21:42.370Z,101219.59
2022-10-03T21:24:24.196Z,101133.78
2022-10-03T21:27:00.318Z,101235.44
2022-10-03T21:29:31.976Z,101222.19
2022-10-03T21:32:28.305Z,101228.38
2022-10-03T21:35:19.146Z,101220.34
2022-10-03T21:38:01.200Z,101136.28
2022-10-03T21:41:04.255Z,101221.09
2022-10-03T21:43:50.254Z,101224.84
2022-10-03T21:46:30.473Z,101209.22
2022-10-03T21:49:25.974Z,101172.50
2022-10-03T21:52:27.232Z,101198.56
2022-10-03T21:55:50.651Z,101183.47
2022-10-03T21:58:50.569Z,101215.59
2022-10-03T22:01:31.362Z,101209.47
2022-10-03T22:04:07.035Z,101212.81
2022-10-03T22:06:44.076Z,101216.25
2022-10-03T22:09:16.167Z,101214.41
2022-10-03T22:11:54.083Z,101214.41
2022-10-03T22:14:42.023Z,101141.78
2022-10-03T22:17:27.092Z,101189.78
2022-10-03T22:20:15.188Z,101214.22
2022-10-03T22:23:07.533Z,101204.47
2022-10-03T22:26:04.207Z,101203.47
2022-10-03T22:28:54.391Z,100996.41
2022-10-03T22:31:33.358Z,101208.72
2022-10-03T22:34:38.619Z,101205.16
2022-10-03T22:37:07.698Z,101018.06
2022-10-03T22:39:38.055Z,101052.06
2022-10-03T22:42:07.891Z,101204.28
2022-10-03T22:44:43.856Z,101216.53
2022-10-03T22:47:20.596Z,101205.69
2022-10-03T22:49:59.027Z,101182.88
2022-10-03T22:52:31.286Z,101199.38
2022-10-03T22:55:04.116Z,101203.88
2022-10-03T22:57:35.823Z,101017.66
2022-10-03T23:00:09.761Z,101205.56
2022-10-03T23:02:44.053Z,101202.81
2022-10-03T23:05:26.851Z,101199.28
2022-10-03T23:08:14.131Z,101176.78
2022-10-03T23:10:55.191Z,101018.44
2022-10-03T23:13:39.472Z,101182.72
2022-10-03T23:16:26.495Z,100984.28
2022-10-03T23:19:16.841Z,101203.94
2022-10-03T23:21:49.525Z,101203.97
2022-10-03T23:24:28.832Z,101166.38
2022-10-03T23:27:38.969Z,101198.59
2022-10-03T23:30:50.226Z,101117.31
2022-10-03T23:33:39.352Z,101176.78
2022-10-03T23:36:17.802Z,101176.84
2022-10-03T23:39:01.794Z,101203.19
2022-10-03T23:41:44.023Z,101042.19
2022-10-03T23:44:43.653Z,101201.31
2022-10-03T23:47:20.058Z,101194.31
2022-10-03T23:49:52.025Z,101146.16
2022-10-03T23:52:29.520Z,101014.19
2022-10-03T23:55:06.896Z,101198.81
2022-10-03T23:57:40.865Z,101199.81
